Time;durP1;ratioP1;P1;durP2;ratioP2;P2;SDS_P1;SDS_P2;PMS_P1;PMS_P2;Temp;Humidity;BMP_temperature;BMP_pressure;BME280_temperature;BME280_humidity;BME280_pressure;Samples;Min_cycle;Max_cycle;Signal;HPM_P1;HPM_P2
2022/09/29 00:01:56;;;;;;;25.73;11.48;;;;;;;;;;6166738;28;20047;-57
2022/09/29 00:04:57;;;;;;;24.65;10.85;;;;;;;;;;6165497;28;20043;-59
2022/09/29 00:07:57;;;;;;;26.83;10.77;;;;;;;;;;6164613;28;20042;-58
2022/09/29 00:10:58;;;;;;;23.27;10.70;;;;;;;;;;6166335;28;20053;-59
2022/09/29 00:13:59;;;;;;;23.05;10.57;;;;;;;;;;6164834;28;20043;-58
2022/09/29 00:16:59;;;;;;;28.33;11.27;;;;;;;;;;6165048;28;20042;-61
2022/09/29 00:20:00;;;;;;;21.08;9.88;;;;;;;;;;6164454;28;20039;-58
2022/09/29 00:23:01;;;;;;;25.52;10.57;;;;;;;;;;6161580;28;20047;-58
2022/09/29 00:26:14;;;;;;;24.75;10.82;;;;;;;;;;6164897;28;20047;-59
2022/09/29 00:29:15;;;;;;;27.15;13.23;;;;;;;;;;6163631;28;20142;-58
2022/09/29 00:32:15;;;;;;;26.17;10.93;;;;;;;;;;6165219;28;20051;-59
2022/09/29 00:35:17;;;;;;;27.45;11.45;;;;;;;;;;6165530;28;20441;-58
2022/09/29 00:38:17;;;;;;;28.48;11.32;;;;;;;;;;6163176;28;20380;-59
2022/09/29 00:41:26;;;;;;;28.05;12.25;;;;;;;;;;6163437;28;20180;-58
2022/09/29 00:45:01;;;;;;;31.40;11.32;;;;;;;;;;6161987;28;20043;-59
2022/09/29 00:48:11;;;;;;;30.58;11.73;;;;;;;;;;6163122;28;20167;-59
2022/09/29 00:51:13;;;;;;;31.77;13.00;;;;;;;;;;6162862;28;20050;-57
2022/09/29 00:54:14;;;;;;;48.40;15.77;;;;;;;;;;6164051;28;20130;-58
2022/09/29 00:57:19;;;;;;;38.08;16.30;;;;;;;;;;6167299;28;20097;-58
2022/09/29 01:00:20;;;;;;;26.02;11.32;;;;;;;;;;6164624;28;20050;-58
2022/09/29 01:03:24;;;;;;;25.13;11.35;;;;;;;;;;6164487;28;20525;-60
2022/09/29 01:06:34;;;;;;;27.30;12.00;;;;;;;;;;6164343;28;20157;-58
2022/09/29 01:09:38;;;;;;;31.67;13.00;;;;;;;;;;6163467;28;20039;-59
2022/09/29 01:12:39;;;;;;;37.08;13.32;;;;;;;;;;6162119;28;20429;-59
2022/09/29 01:15:39;;;;;;;29.63;13.60;;;;;;;;;;6161619;28;20062;-57
2022/09/29 01:18:41;;;;;;;30.75;15.25;;;;;;;;;;6161769;28;20066;-60
2022/09/29 01:22:06;;;;;;;34.88;12.32;;;;;;;;;;6163345;28;20134;-59
2022/09/29 01:25:35;;;;;;;34.72;15.20;;;;;;;;;;6163107;28;20555;-56
2022/09/29 01:29:13;;;;;;;36.30;18.05;;;;;;;;;;6160269;28;20422;-60
2022/09/29 01:32:22;;;;;;;32.63;15.10;;;;;;;;;;6160218;28;20100;-58
2022/09/29 01:36:01;;;;;;;36.00;17.23;;;;;;;;;;6161427;28;20531;-58
2022/09/29 01:39:28;;;;;;;38.67;15.73;;;;;;;;;;6148975;28;20137;-61
2022/09/29 01:42:35;;;;;;;38.63;17.15;;;;;;;;;;6166018;28;20721;-61
2022/09/29 01:45:41;;;;;;;42.70;18.95;;;;;;;;;;6162656;28;20086;-59
2022/09/29 01:48:46;;;;;;;37.83;17.85;;;;;;;;;;6163852;28;20050;-58
2022/09/29 01:51:54;;;;;;;43.58;16.75;;;;;;;;;;6162541;28;20055;-58
2022/09/29 01:55:18;;;;;;;45.70;19.63;;;;;;;;;;6162972;28;20050;-60
2022/09/29 01:58:26;;;;;;;42.25;16.70;;;;;;;;;;6161977;28;20082;-58
2022/09/29 02:01:33;;;;;;;37.10;17.02;;;;;;;;;;6160543;28;20105;-58
2022/09/29 02:04:52;;;;;;;35.40;16.83;;;;;;;;;;6162074;28;20073;-58
2022/09/29 02:07:56;;;;;;;36.65;15.10;;;;;;;;;;6159729;28;20043;-58
2022/09/29 02:11:06;;;;;;;35.53;15.50;;;;;;;;;;6160688;28;20449;-59
2022/09/29 02:14:24;;;;;;;38.38;13.50;;;;;;;;;;6158912;28;20054;-59
2022/09/29 02:17:34;;;;;;;34.40;13.60;;;;;;;;;;6160643;28;20043;-59
2022/09/29 02:20:35;;;;;;;32.10;13.13;;;;;;;;;;6161242;28;20083;-58
2022/09/29 02:23:36;;;;;;;33.08;11.77;;;;;;;;;;6163227;28;20057;-59
2022/09/29 02:26:37;;;;;;;29.58;12.05;;;;;;;;;;6159556;28;20513;-61
2022/09/29 02:29:38;;;;;;;30.95;12.75;;;;;;;;;;6162853;28;20054;-59
2022/09/29 02:32:39;;;;;;;29.48;13.23;;;;;;;;;;6164520;28;20078;-58
2022/09/29 02:35:50;;;;;;;32.55;12.10;;;;;;;;;;6163403;28;20047;-59
2022/09/29 02:38:58;;;;;;;31.95;12.20;;;;;;;;;;6161422;28;20038;-59
2022/09/29 02:42:43;;;;;;;28.63;11.88;;;;;;;;;;6162337;28;20062;-59
2022/09/29 02:45:56;;;;;;;29.27;12.88;;;;;;;;;;6139273;28;20054;-57
2022/09/29 02:49:32;;;;;;;28.08;12.63;;;;;;;;;;6162162;28;20142;-59
2022/09/29 02:52:48;;;;;;;29.77;13.48;;;;;;;;;;6140921;28;20058;-59
2022/09/29 02:56:14;;;;;;;28.88;11.93;;;;;;;;;;6160186;28;21002;-59
2022/09/29 02:59:26;;;;;;;24.75;10.88;;;;;;;;;;6159209;28;20058;-58
2022/09/29 03:02:27;;;;;;;;;;;;;;;;;;6172677;28;20486;-59
2022/09/29 03:05:28;;;;;;;34.33;14.60;;;;;;;;;;6160566;28;19926;-59
2022/09/29 03:08:29;;;;;;;28.70;11.95;;;;;;;;;;6162535;28;20100;-58
2022/09/29 03:11:29;;;;;;;27.10;12.05;;;;;;;;;;6161951;28;20043;-60
2022/09/29 03:14:30;;;;;;;27.17;12.82;;;;;;;;;;6160306;28;20491;-59
2022/09/29 03:17:30;;;;;;;27.45;12.77;;;;;;;;;;6166100;28;20089;-56
2022/09/29 03:20:31;;;;;;;32.60;15.20;;;;;;;;;;6161423;28;20173;-56
2022/09/29 03:23:31;;;;;;;33.20;14.07;;;;;;;;;;6160594;28;20525;-56
2022/09/29 03:26:32;;;;;;;29.13;13.05;;;;;;;;;;6160537;28;20050;-56
2022/09/29 03:29:32;;;;;;;32.67;14.10;;;;;;;;;;6161820;28;20051;-56
2022/09/29 03:32:33;;;;;;;32.10;15.02;;;;;;;;;;6161344;28;20050;-55
2022/09/29 03:35:34;;;;;;;32.42;13.55;;;;;;;;;;6159668;28;20155;-57
2022/09/29 03:38:34;;;;;;;32.67;12.10;;;;;;;;;;6160745;28;20059;-60
2022/09/29 03:41:35;;;;;;;26.67;12.77;;;;;;;;;;6160957;28;20058;-63
2022/09/29 03:44:36;;;;;;;26.20;12.52;;;;;;;;;;6157599;28;20069;-59
2022/09/29 03:47:36;;;;;;;35.70;11.98;;;;;;;;;;6158960;28;20043;-56
2022/09/29 03:50:37;;;;;;;29.75;12.73;;;;;;;;;;6161440;28;20449;-58
2022/09/29 03:53:37;;;;;;;28.25;14.65;;;;;;;;;;6160743;28;20534;-56
2022/09/29 03:56:38;;;;;;;30.55;14.45;;;;;;;;;;6160825;28;20045;-57
2022/09/29 03:59:39;;;;;;;28.98;13.57;;;;;;;;;;6162209;28;20104;-57
2022/09/29 04:02:39;;;;;;;35.38;15.55;;;;;;;;;;6159979;28;20141;-57
2022/09/29 04:05:40;;;;;;;33.78;15.88;;;;;;;;;;6160181;28;20514;-57
2022/09/29 04:08:41;;;;;;;29.65;13.63;;;;;;;;;;6166995;28;20149;-56
2022/09/29 04:11:41;;;;;;;34.30;14.18;;;;;;;;;;6164317;28;21354;-57
2022/09/29 04:14:42;;;;;;;34.60;14.50;;;;;;;;;;6163857;28;20049;-57
2022/09/29 04:17:43;;;;;;;30.02;13.63;;;;;;;;;;6165450;28;20070;-59
2022/09/29 04:20:43;;;;;;;33.20;14.30;;;;;;;;;;6165286;28;20039;-56
2022/09/29 04:23:45;;;;;;;34.13;14.60;;;;;;;;;;6164146;28;20089;-58
2022/09/29 04:26:45;;;;;;;34.13;14.88;;;;;;;;;;6163785;28;20092;-57
2022/09/29 04:29:46;;;;;;;45.42;17.52;;;;;;;;;;6165587;28;20415;-56
2022/09/29 04:32:46;;;;;;;38.00;15.30;;;;;;;;;;6167249;28;20141;-59
2022/09/29 04:35:47;;;;;;;37.08;15.30;;;;;;;;;;6169401;28;20515;-57
2022/09/29 04:38:49;;;;;;;31.48;13.77;;;;;;;;;;6165549;28;20088;-55
2022/09/29 04:41:49;;;;;;;35.50;13.77;;;;;;;;;;6164643;28;20498;-59
2022/09/29 04:44:50;;;;;;;35.30;13.50;;;;;;;;;;6162043;28;20142;-57
2022/09/29 04:47:51;;;;;;;32.85;13.13;;;;;;;;;;6169152;28;20158;-55
2022/09/29 04:50:53;;;;;;;29.35;13.02;;;;;;;;;;6171233;28;20137;-59
2022/09/29 04:53:54;;;;;;;30.15;13.95;;;;;;;;;;6169584;28;20105;-58
2022/09/29 04:56:54;;;;;;;31.25;13.88;;;;;;;;;;6171060;28;20046;-56
2022/09/29 04:59:55;;;;;;;37.17;14.02;;;;;;;;;;6170635;28;20054;-57
2022/09/29 05:02:56;;;;;;;34.58;14.25;;;;;;;;;;6170270;28;20509;-59
2022/09/29 05:05:57;;;;;;;34.65;13.77;;;;;;;;;;6170634;28;20483;-58
2022/09/29 05:08:57;;;;;;;30.45;12.25;;;;;;;;;;6170614;28;20066;-56
2022/09/29 05:11:58;;;;;;;36.67;15.77;;;;;;;;;;6170375;28;20095;-59
2022/09/29 05:14:59;;;;;;;29.80;12.75;;;;;;;;;;6169563;28;20047;-60
2022/09/29 05:18:02;;;;;;;29.58;12.73;;;;;;;;;;6165322;28;20185;-58
2022/09/29 05:21:05;;;;;;;34.85;14.13;;;;;;;;;;6170491;28;20434;-59
2022/09/29 05:24:05;;;;;;;34.95;14.98;;;;;;;;;;6169004;28;20526;-57
2022/09/29 05:27:06;;;;;;;41.55;17.75;;;;;;;;;;6165140;28;20153;-58
2022/09/29 05:30:08;;;;;;;43.65;18.30;;;;;;;;;;6162653;28;20074;-57
2022/09/29 05:33:08;;;;;;;47.60;20.42;;;;;;;;;;6162282;28;20043;-57
2022/09/29 05:36:11;;;;;;;49.65;22.17;;;;;;;;;;6167820;28;20161;-59
2022/09/29 05:39:11;;;;;;;44.72;22.55;;;;;;;;;;6162059;28;20081;-58
2022/09/29 05:42:12;;;;;;;54.22;26.33;;;;;;;;;;6166472;28;20046;-58
2022/09/29 05:45:13;;;;;;;69.10;33.60;;;;;;;;;;6162327;28;20121;-57
2022/09/29 05:48:13;;;;;;;65.35;31.25;;;;;;;;;;6162545;28;20053;-56
2022/09/29 05:51:17;;;;;;;70.85;31.67;;;;;;;;;;6164790;28;20166;-58
2022/09/29 05:54:17;;;;;;;80.22;36.67;;;;;;;;;;6164375;28;20047;-57
2022/09/29 05:57:18;;;;;;;68.15;29.70;;;;;;;;;;6167275;28;20058;-58
2022/09/29 06:00:18;;;;;;;67.97;29.30;;;;;;;;;;6165852;28;20052;-58
2022/09/29 06:03:19;;;;;;;63.83;27.20;;;;;;;;;;6166071;28;20511;-55
2022/09/29 06:06:25;;;;;;;71.35;30.42;;;;;;;;;;6167021;28;20548;-58
2022/09/29 06:09:25;;;;;;;58.83;24.77;;;;;;;;;;6166495;28;20074;-57
2022/09/29 06:12:26;;;;;;;72.03;28.73;;;;;;;;;;6167420;28;20057;-55
2022/09/29 06:15:27;;;;;;;71.07;28.42;;;;;;;;;;6165881;28;20570;-57
2022/09/29 06:18:27;;;;;;;68.13;29.02;;;;;;;;;;6166993;28;20051;-57
2022/09/29 06:21:29;;;;;;;71.63;28.95;;;;;;;;;;6167454;28;20047;-59
2022/09/29 06:24:30;;;;;;;74.15;29.92;;;;;;;;;;6166165;28;20125;-58
2022/09/29 06:27:30;;;;;;;64.75;27.10;;;;;;;;;;6167088;28;20058;-58
2022/09/29 06:30:31;;;;;;;64.38;28.05;;;;;;;;;;6165593;28;20047;-62
2022/09/29 06:33:33;;;;;;;63.83;27.27;;;;;;;;;;6165473;28;20047;-61
2022/09/29 06:39:54;;;;;;;99.93;42.42;;;;;;;;;;6168657;28;20405;-58
2022/09/29 06:42:55;;;;;;;103.00;41.28;;;;;;;;;;6166910;28;20054;-57
2022/09/29 06:45:55;;;;;;;90.82;38.60;;;;;;;;;;6163492;28;20054;-59
2022/09/29 06:48:56;;;;;;;90.18;37.88;;;;;;;;;;6164435;28;20043;-60
2022/09/29 06:51:57;;;;;;;80.57;31.65;;;;;;;;;;6168321;28;20121;-62
2022/09/29 06:54:57;;;;;;;74.78;30.70;;;;;;;;;;6165751;28;20563;-61
2022/09/29 06:57:59;;;;;;;82.68;33.75;;;;;;;;;;6164254;28;20561;-57
2022/09/29 07:01:01;;;;;;;66.47;26.88;;;;;;;;;;6166015;28;20093;-56
2022/09/29 07:04:02;;;;;;;55.20;23.42;;;;;;;;;;6164966;28;20186;-56
2022/09/29 07:07:02;;;;;;;52.88;22.38;;;;;;;;;;6162815;28;20039;-57
2022/09/29 07:10:04;;;;;;;48.63;21.23;;;;;;;;;;6175885;28;20138;-52
2022/09/29 07:13:05;;;;;;;62.20;22.35;;;;;;;;;;6167701;28;20138;-57
2022/09/29 07:16:10;;;;;;;47.80;20.50;;;;;;;;;;6165072;28;20417;-57
2022/09/29 07:19:11;;;;;;;56.97;24.42;;;;;;;;;;6160968;28;20043;-57
2022/09/29 07:22:12;;;;;;;42.88;18.00;;;;;;;;;;6162246;28;20189;-55
2022/09/29 07:25:12;;;;;;;48.85;20.23;;;;;;;;;;6157980;28;20465;-56
2022/09/29 07:28:13;;;;;;;38.70;16.63;;;;;;;;;;6168457;28;20050;-57
2022/09/29 07:31:16;;;;;;;42.50;17.60;;;;;;;;;;6161964;28;20049;-56
2022/09/29 07:34:19;;;;;;;45.05;19.60;;;;;;;;;;6160375;28;20043;-53
2022/09/29 07:37:19;;;;;;;53.55;20.50;;;;;;;;;;6163239;28;20225;-58
2022/09/29 07:40:21;;;;;;;46.30;21.67;;;;;;;;;;6182012;28;20118;-58
2022/09/29 07:43:21;;;;;;;44.10;19.80;;;;;;;;;;6172281;28;20065;-59
2022/09/29 07:46:22;;;;;;;31.45;13.95;;;;;;;;;;6169556;28;20527;-59
2022/09/29 07:49:23;;;;;;;43.40;19.05;;;;;;;;;;6172416;28;20074;-59
2022/09/29 07:52:24;;;;;;;43.30;19.10;;;;;;;;;;6172327;28;20046;-59
2022/09/29 07:55:26;;;;;;;34.53;15.55;;;;;;;;;;6171166;28;20089;-59
2022/09/29 07:58:27;;;;;;;31.02;13.73;;;;;;;;;;6170405;28;20050;-68
2022/09/29 08:01:28;;;;;;;32.60;13.65;;;;;;;;;;6172714;28;20058;-59
2022/09/29 08:04:30;;;;;;;39.33;15.87;;;;;;;;;;6181722;28;20129;-60
2022/09/29 08:07:30;;;;;;;32.58;13.85;;;;;;;;;;6171052;28;20308;-59
2022/09/29 08:10:32;;;;;;;41.10;20.45;;;;;;;;;;6171313;28;20809;-60
2022/09/29 08:13:34;;;;;;;43.27;19.67;;;;;;;;;;6171097;28;20130;-60
2022/09/29 08:16:36;;;;;;;41.00;16.08;;;;;;;;;;6171611;28;20348;-59
2022/09/29 08:19:37;;;;;;;34.13;12.85;;;;;;;;;;6169870;28;20058;-60
2022/09/29 08:22:37;;;;;;;32.50;15.52;;;;;;;;;;6168275;28;20051;-59
2022/09/29 08:25:38;;;;;;;28.10;12.77;;;;;;;;;;6169081;28;20038;-61
2022/09/29 08:28:39;;;;;;;29.05;13.63;;;;;;;;;;6170400;28;20043;-59
2022/09/29 08:31:39;;;;;;;20.83;10.23;;;;;;;;;;6168000;28;20076;-59
2022/09/29 08:34:40;;;;;;;30.25;13.75;;;;;;;;;;6160926;28;20058;-58
2022/09/29 08:37:40;;;;;;;32.38;13.55;;;;;;;;;;6159287;28;20562;-58
2022/09/29 08:40:41;;;;;;;27.55;13.00;;;;;;;;;;6159282;28;20049;-62
2022/09/29 08:43:43;;;;;;;31.15;13.75;;;;;;;;;;6160576;28;20559;-59
2022/09/29 08:46:51;;;;;;;;;;;;;;;;;;6157966;28;20141;-61
2022/09/29 08:49:59;;;;;;;24.30;9.75;;;;;;;;;;6158759;28;19992;-64
2022/09/29 08:53:06;;;;;;;24.17;9.48;;;;;;;;;;6160779;28;20675;-63
2022/09/29 08:56:14;;;;;;;13.93;7.25;;;;;;;;;;6152273;28;20458;-65
2022/09/29 08:59:14;;;;;;;20.15;9.13;;;;;;;;;;6161491;28;20105;-64
2022/09/29 09:02:27;;;;;;;23.55;9.73;;;;;;;;;;6160993;28;20043;-63
2022/09/29 09:05:54;;;;;;;16.63;7.90;;;;;;;;;;6158192;28;20108;-65
2022/09/29 09:09:31;;;;;;;19.73;8.25;;;;;;;;;;6156664;28;20142;-61
2022/09/29 09:13:07;;;;;;;23.92;8.30;;;;;;;;;;6159442;28;20141;-63
2022/09/29 09:16:22;;;;;;;26.73;10.45;;;;;;;;;;6159217;28;20047;-62
2022/09/29 09:19:54;;;;;;;31.05;13.60;;;;;;;;;;6159245;28;20142;-64
2022/09/29 09:23:04;;;;;;;33.92;13.75;;;;;;;;;;6158810;28;20407;-65
2022/09/29 09:26:05;;;;;;;27.23;11.18;;;;;;;;;;6154806;28;20074;-59
2022/09/29 09:29:33;;;;;;;22.83;8.90;;;;;;;;;;6159937;28;20062;-61
2022/09/29 09:32:42;;;;;;;14.95;7.20;;;;;;;;;;6155000;28;20163;-59
2022/09/29 09:35:50;;;;;;;19.83;8.70;;;;;;;;;;6158509;28;20054;-61
2022/09/29 09:39:01;;;;;;;20.63;9.13;;;;;;;;;;6157578;28;20051;-59
2022/09/29 09:42:10;;;;;;;22.13;8.60;;;;;;;;;;6160421;28;20055;-63
2022/09/29 09:45:24;;;;;;;20.48;8.52;;;;;;;;;;6158094;28;20577;-64
2022/09/29 09:48:32;;;;;;;18.52;8.63;;;;;;;;;;6157912;28;20038;-65
2022/09/29 09:51:36;;;;;;;21.08;10.70;;;;;;;;;;6159976;28;21359;-68
2022/09/29 09:54:44;;;;;;;25.33;9.98;;;;;;;;;;6158207;28;20141;-66
2022/09/29 09:58:11;;;;;;;24.60;8.38;;;;;;;;;;6159333;28;20074;-64
2022/09/29 10:01:11;;;;;;;21.80;8.98;;;;;;;;;;6157253;28;20058;-61
2022/09/29 10:04:12;;;;;;;22.48;10.30;;;;;;;;;;6153291;28;20454;-60
2022/09/29 10:07:13;;;;;;;24.60;11.18;;;;;;;;;;6159802;28;20596;-61
2022/09/29 10:10:22;;;;;;;18.15;8.93;;;;;;;;;;6157896;28;20043;-62
2022/09/29 10:13:28;;;;;;;18.77;7.85;;;;;;;;;;6158432;28;20047;-62
2022/09/29 10:16:46;;;;;;;16.30;7.15;;;;;;;;;;6155754;28;20051;-59
2022/09/29 10:19:56;;;;;;;13.80;6.78;;;;;;;;;;6157451;28;20047;-61
2022/09/29 10:23:24;;;;;;;14.95;6.45;;;;;;;;;;6156264;28;20053;-62
2022/09/29 10:26:43;;;;;;;15.55;7.00;;;;;;;;;;6154631;28;20078;-62
2022/09/29 10:29:49;;;;;;;15.50;6.78;;;;;;;;;;6158426;28;20051;-61
2022/09/29 10:32:58;;;;;;;16.80;7.70;;;;;;;;;;6159662;28;20065;-62
2022/09/29 10:36:07;;;;;;;14.77;6.60;;;;;;;;;;6153005;28;20050;-62
2022/09/29 10:39:29;;;;;;;13.93;6.43;;;;;;;;;;6157592;28;20058;-62
2022/09/29 10:42:34;;;;;;;12.70;6.20;;;;;;;;;;6151037;28;20613;-62
2022/09/29 10:45:46;;;;;;;13.45;5.70;;;;;;;;;;6154866;28;20089;-65
2022/09/29 10:49:08;;;;;;;14.07;6.45;;;;;;;;;;6156466;28;20078;-59
2022/09/29 10:52:24;;;;;;;13.93;6.22;;;;;;;;;;6156552;28;20518;-62
2022/09/29 10:55:28;;;;;;;11.30;5.43;;;;;;;;;;6152999;28;20141;-62
2022/09/29 10:58:32;;;;;;;12.80;5.72;;;;;;;;;;6158437;28;20137;-63
2022/09/29 11:01:46;;;;;;;12.13;5.18;;;;;;;;;;6156734;28;20445;-61
2022/09/29 11:04:47;;;;;;;11.55;5.65;;;;;;;;;;6155485;28;20063;-60
2022/09/29 11:07:51;;;;;;;9.98;4.95;;;;;;;;;;6157538;28;20134;-68
2022/09/29 11:11:20;;;;;;;10.82;5.10;;;;;;;;;;6150450;28;20050;-61
2022/09/29 11:14:38;;;;;;;11.48;4.97;;;;;;;;;;6154536;28;20142;-62
2022/09/29 11:17:48;;;;;;;10.35;5.00;;;;;;;;;;6155469;28;20627;-62
2022/09/29 11:21:03;;;;;;;8.60;4.50;;;;;;;;;;6157792;28;20150;-63
2022/09/29 11:24:37;;;;;;;11.60;5.00;;;;;;;;;;6154789;28;20589;-63
2022/09/29 11:27:53;;;;;;;9.25;4.38;;;;;;;;;;6156465;28;20837;-68
2022/09/29 11:31:22;;;;;;;14.25;6.75;;;;;;;;;;6154473;28;20059;-62
2022/09/29 11:34:45;;;;;;;15.75;5.00;;;;;;;;;;6153378;28;20062;-62
2022/09/29 11:37:56;;;;;;;10.45;4.63;;;;;;;;;;6155876;28;20517;-62
2022/09/29 11:41:34;;;;;;;6.72;3.50;;;;;;;;;;6155302;28;20582;-63
2022/09/29 11:44:44;;;;;;;11.13;4.70;;;;;;;;;;6153494;28;20146;-63
2022/09/29 11:48:12;;;;;;;8.80;4.13;;;;;;;;;;6157468;28;20085;-62
2022/09/29 11:51:36;;;;;;;11.07;5.05;;;;;;;;;;6157494;28;20121;-62
2022/09/29 11:55:11;;;;;;;10.90;5.25;;;;;;;;;;6154612;28;20055;-63
2022/09/29 11:58:30;;;;;;;9.52;4.82;;;;;;;;;;6155635;28;20050;-63
2022/09/29 12:02:16;;;;;;;9.63;5.20;;;;;;;;;;6156156;28;20198;-62
2022/09/29 12:05:28;;;;;;;8.52;4.82;;;;;;;;;;6065428;29;20040;-63
2022/09/29 12:09:06;;;;;;;8.93;4.78;;;;;;;;;;6069756;28;20146;-63
2022/09/29 12:12:35;;;;;;;8.38;4.80;;;;;;;;;;6156571;28;20065;-61
2022/09/29 12:16:07;;;;;;;10.75;5.07;;;;;;;;;;6154423;28;20126;-63
2022/09/29 12:19:14;;;;;;;11.57;5.68;;;;;;;;;;6155265;28;20047;-63
2022/09/29 12:22:18;;;;;;;13.38;5.88;;;;;;;;;;6151994;28;20703;-63
2022/09/29 12:25:23;;;;;;;25.58;17.10;;;;;;;;;;6147201;28;20549;-62
2022/09/29 12:29:07;;;;;;;11.82;6.88;;;;;;;;;;6150369;28;20141;-63
2022/09/29 12:32:28;;;;;;;10.45;5.32;;;;;;;;;;6149535;28;20718;-63
2022/09/29 12:35:32;;;;;;;10.88;5.70;;;;;;;;;;6152717;28;20070;-63
2022/09/29 12:38:41;;;;;;;10.80;5.55;;;;;;;;;;6153323;28;21698;-63
2022/09/29 12:41:52;;;;;;;11.20;5.80;;;;;;;;;;6152046;28;20141;-62
2022/09/29 12:45:05;;;;;;;12.60;6.15;;;;;;;;;;6149367;28;20150;-63
2022/09/29 12:48:23;;;;;;;11.55;5.90;;;;;;;;;;6153427;28;20677;-62
2022/09/29 12:51:47;;;;;;;10.35;5.63;;;;;;;;;;6151709;28;21298;-63
2022/09/29 12:54:55;;;;;;;13.60;6.57;;;;;;;;;;6151714;28;20089;-63
2022/09/29 12:57:59;;;;;;;10.55;5.90;;;;;;;;;;6152421;28;20125;-63
2022/09/29 13:01:26;;;;;;;10.20;5.85;;;;;;;;;;6153803;28;20131;-63
2022/09/29 13:04:49;;;;;;;16.75;5.85;;;;;;;;;;6150603;28;20117;-63
2022/09/29 13:08:19;;;;;;;15.95;6.40;;;;;;;;;;6151877;28;20051;-62
2022/09/29 13:11:47;;;;;;;13.13;6.15;;;;;;;;;;6151144;28;20051;-63
2022/09/29 13:15:03;;;;;;;11.40;5.57;;;;;;;;;;6152418;28;20581;-62
2022/09/29 13:18:07;;;;;;;22.80;7.32;;;;;;;;;;6154709;28;20153;-62
2022/09/29 13:21:28;;;;;;;16.40;7.10;;;;;;;;;;6152103;28;20138;-62
2022/09/29 13:24:53;;;;;;;11.60;5.32;;;;;;;;;;6149683;28;20065;-63
2022/09/29 13:27:56;;;;;;;12.27;6.22;;;;;;;;;;6153973;28;20711;-63
2022/09/29 13:31:02;;;;;;;12.93;5.93;;;;;;;;;;6153068;28;20134;-62
2022/09/29 13:34:04;;;;;;;10.23;5.90;;;;;;;;;;6150851;28;20800;-62
2022/09/29 13:37:41;;;;;;;14.70;5.70;;;;;;;;;;6149824;28;20091;-63
2022/09/29 13:41:12;;;;;;;16.52;6.82;;;;;;;;;;6151394;28;20180;-62
2022/09/29 13:44:15;;;;;;;14.98;6.50;;;;;;;;;;6149351;28;20584;-62
2022/09/29 13:47:45;;;;;;;13.27;5.60;;;;;;;;;;6151915;28;20129;-62
2022/09/29 13:50:50;;;;;;;13.23;6.20;;;;;;;;;;6134451;28;20391;-62
2022/09/29 13:54:20;;;;;;;15.13;6.80;;;;;;;;;;6150841;28;20058;-62
2022/09/29 13:57:23;;;;;;;15.07;6.90;;;;;;;;;;6149868;28;20057;-62
2022/09/29 14:00:26;;;;;;;19.67;9.13;;;;;;;;;;6151065;28;20107;-61
2022/09/29 14:03:27;;;;;;;12.98;5.85;;;;;;;;;;6151181;28;20097;-62
2022/09/29 14:06:34;;;;;;;13.68;5.85;;;;;;;;;;6149085;28;20471;-62
2022/09/29 14:09:40;;;;;;;20.35;6.15;;;;;;;;;;6152739;28;20145;-62
2022/09/29 14:12:41;;;;;;;17.40;6.85;;;;;;;;;;6150236;28;20135;-62
2022/09/29 14:15:45;;;;;;;16.13;8.45;;;;;;;;;;6147545;28;20047;-63
2022/09/29 14:18:52;;;;;;;13.52;6.63;;;;;;;;;;6151863;28;20137;-62
2022/09/29 14:21:55;;;;;;;16.45;5.93;;;;;;;;;;6150691;28;20096;-62
2022/09/29 14:25:16;;;;;;;14.80;6.75;;;;;;;;;;6147059;28;20151;-62
2022/09/29 14:28:21;;;;;;;27.85;9.73;;;;;;;;;;6136921;28;20050;-62
2022/09/29 14:31:23;;;;;;;23.02;8.13;;;;;;;;;;6154332;28;20089;-62
2022/09/29 14:34:31;;;;;;;23.95;8.45;;;;;;;;;;6155114;28;20058;-62
2022/09/29 14:37:32;;;;;;;35.35;10.05;;;;;;;;;;6151841;28;20049;-62
2022/09/29 14:40:33;;;;;;;29.33;9.68;;;;;;;;;;6152952;28;20058;-62
2022/09/29 14:43:41;;;;;;;22.05;7.88;;;;;;;;;;6150064;28;20059;-62
2022/09/29 14:54:06;;;;;;;20.33;7.15;;;;;;;;;;6149710;28;20070;-62
2022/09/29 14:57:32;;;;;;;17.27;6.72;;;;;;;;;;6150275;28;20506;-62
2022/09/29 15:00:47;;;;;;;16.92;5.85;;;;;;;;;;6149079;28;20062;-62
2022/09/29 15:03:50;;;;;;;16.27;6.38;;;;;;;;;;6147706;28;20051;-62
2022/09/29 15:06:51;;;;;;;21.60;6.63;;;;;;;;;;6151022;28;20070;-62
2022/09/29 15:09:56;;;;;;;21.48;7.82;;;;;;;;;;6157204;28;21520;-62
2022/09/29 15:13:22;;;;;;;23.77;8.23;;;;;;;;;;6155808;28;20047;-62
2022/09/29 15:16:33;;;;;;;25.70;10.18;;;;;;;;;;6154491;28;20154;-62
2022/09/29 15:19:44;;;;;;;31.00;13.27;;;;;;;;;;6156781;28;20198;-62
2022/09/29 15:22:54;;;;;;;27.33;12.90;;;;;;;;;;6152429;28;20409;-65
2022/09/29 15:25:57;;;;;;;28.73;12.88;;;;;;;;;;6146342;28;20130;-63
2022/09/29 15:28:59;;;;;;;33.55;12.90;;;;;;;;;;6148156;28;20071;-63
2022/09/29 15:32:00;;;;;;;45.93;16.03;;;;;;;;;;6152092;28;20096;-62
2022/09/29 15:35:04;;;;;;;51.50;19.45;;;;;;;;;;6149405;28;20149;-62
2022/09/29 15:38:08;;;;;;;33.42;14.13;;;;;;;;;;6147911;28;20165;-63
2022/09/29 15:41:09;;;;;;;32.05;12.75;;;;;;;;;;6149507;28;20054;-64
2022/09/29 15:44:16;;;;;;;31.13;13.20;;;;;;;;;;6148239;28;20054;-63
2022/09/29 15:47:25;;;;;;;29.58;13.43;;;;;;;;;;6148429;28;20556;-62
2022/09/29 15:50:29;;;;;;;37.47;15.85;;;;;;;;;;6154644;28;20097;-63
2022/09/29 15:53:31;;;;;;;26.25;11.70;;;;;;;;;;6151740;28;20050;-63
2022/09/29 15:56:32;;;;;;;27.77;12.38;;;;;;;;;;6150419;28;20049;-63
2022/09/29 15:59:40;;;;;;;33.13;14.77;;;;;;;;;;6153296;28;20981;-63
2022/09/29 16:02:42;;;;;;;52.33;22.60;;;;;;;;;;6160058;28;20043;-62
2022/09/29 16:05:54;;;;;;;77.85;30.92;;;;;;;;;;6159494;28;20055;-62
2022/09/29 16:09:02;;;;;;;96.13;37.47;;;;;;;;;;6159083;28;20510;-62
2022/09/29 16:12:06;;;;;;;71.78;31.08;;;;;;;;;;6160477;28;20062;-64
2022/09/29 16:15:15;;;;;;;82.63;32.05;;;;;;;;;;6157388;28;20039;-63
2022/09/29 16:18:28;;;;;;;75.07;31.38;;;;;;;;;;6159423;28;20189;-63
2022/09/29 16:21:36;;;;;;;65.07;27.65;;;;;;;;;;6158977;28;20073;-69
2022/09/29 16:24:51;;;;;;;50.30;23.58;;;;;;;;;;6156587;28;20089;-64
2022/09/29 16:27:59;;;;;;;51.20;21.38;;;;;;;;;;6161271;28;20059;-64
2022/09/29 16:31:03;;;;;;;49.97;20.58;;;;;;;;;;6159752;28;20055;-63
2022/09/29 16:34:20;;;;;;;51.22;20.13;;;;;;;;;;6158727;28;20083;-64
2022/09/29 16:37:21;;;;;;;58.20;20.63;;;;;;;;;;6158297;28;20541;-63
2022/09/29 16:40:24;;;;;;;55.08;21.75;;;;;;;;;;6159270;28;20043;-64
2022/09/29 16:43:33;;;;;;;64.82;23.80;;;;;;;;;;6154846;28;20146;-64
2022/09/29 16:46:44;;;;;;;60.05;22.77;;;;;;;;;;6155706;28;20578;-64
2022/09/29 16:49:54;;;;;;;62.40;23.17;;;;;;;;;;6158003;28;20060;-64
2022/09/29 16:52:54;;;;;;;57.90;20.48;;;;;;;;;;6158425;28;20317;-64
2022/09/29 16:56:02;;;;;;;61.33;21.23;;;;;;;;;;6154449;28;20542;-64
2022/09/29 16:59:10;;;;;;;55.00;20.80;;;;;;;;;;6158576;28;20105;-64
2022/09/29 17:02:12;;;;;;;60.58;21.60;;;;;;;;;;6157832;28;20512;-64
2022/09/29 17:05:12;;;;;;;57.73;20.10;;;;;;;;;;6155114;28;20065;-62
2022/09/29 17:08:25;;;;;;;54.50;21.30;;;;;;;;;;6158297;28;20043;-64
2022/09/29 17:11:27;;;;;;;53.90;21.45;;;;;;;;;;6158527;28;20043;-62
2022/09/29 17:14:29;;;;;;;57.05;22.83;;;;;;;;;;6156476;28;20153;-62
2022/09/29 17:17:29;;;;;;;111.10;48.47;;;;;;;;;;6156979;28;20063;-64
2022/09/29 17:20:30;;;;;;;68.57;26.95;;;;;;;;;;6157595;28;20235;-64
2022/09/29 17:23:31;;;;;;;66.28;26.10;;;;;;;;;;6157819;28;20520;-62
2022/09/29 17:29:58;;;;;;;50.50;21.73;;;;;;;;;;6157637;28;20041;-64
2022/09/29 17:32:59;;;;;;;97.90;40.15;;;;;;;;;;6157549;28;20573;-64
2022/09/29 17:36:00;;;;;;;99.63;44.38;;;;;;;;;;6155383;28;20089;-63
2022/09/29 17:39:01;;;;;;;102.60;42.13;;;;;;;;;;6156171;28;20925;-62
2022/09/29 17:42:02;;;;;;;94.57;41.63;;;;;;;;;;6157679;28;20079;-62
2022/09/29 17:45:03;;;;;;;76.53;31.38;;;;;;;;;;6155660;28;20051;-63
2022/09/29 17:48:04;;;;;;;50.17;22.75;;;;;;;;;;6156759;28;20078;-62
2022/09/29 17:51:10;;;;;;;59.58;22.70;;;;;;;;;;6154518;28;20054;-64
2022/09/29 17:54:11;;;;;;;47.97;20.83;;;;;;;;;;6153514;28;20061;-65
2022/09/29 17:57:24;;;;;;;52.10;21.08;;;;;;;;;;6156849;28;20548;-63
2022/09/29 18:00:32;;;;;;;54.17;24.40;;;;;;;;;;6156774;28;20062;-62
2022/09/29 18:03:33;;;;;;;69.25;27.58;;;;;;;;;;6158094;28;20169;-62
2022/09/29 18:06:36;;;;;;;64.60;27.23;;;;;;;;;;6155521;28;20097;-63
2022/09/29 18:09:39;;;;;;;77.57;29.42;;;;;;;;;;6155042;28;20138;-61
2022/09/29 18:12:39;;;;;;;92.38;35.30;;;;;;;;;;6157692;28;20061;-62
2022/09/29 18:15:42;;;;;;;101.43;37.70;;;;;;;;;;6155041;28;20055;-63
2022/09/29 18:18:44;;;;;;;91.55;36.25;;;;;;;;;;6155425;28;20636;-63
2022/09/29 18:21:45;;;;;;;93.80;38.75;;;;;;;;;;6156821;28;20518;-63
2022/09/29 18:24:45;;;;;;;100.00;40.80;;;;;;;;;;6153987;28;20050;-65
2022/09/29 18:27:48;;;;;;;112.70;40.63;;;;;;;;;;6155425;28;20042;-64
2022/09/29 18:30:53;;;;;;;99.68;44.85;;;;;;;;;;6154835;28;20055;-64